Time;durP1;ratioP1;P1;durP2;ratioP2;P2;SDS_P1;SDS_P2;PMS_P1;PMS_P2;Temp;Humidity;BMP_temperature;BMP_pressure;BME280_temperature;BME280_humidity;BME280_pressure;Samples;Min_cycle;Max_cycle;Signal;HPM_P1;HPM_P2
2022/09/23 00:01:34;;;;;;;4.63;2.87;;;9.50;72.50;;;;;;928823;152;27325;-77
2022/09/23 00:04:01;;;;;;;3.73;2.70;;;9.50;72.50;;;;;;928342;151;27341;-77
2022/09/23 00:06:27;;;;;;;2.77;2.53;;;9.60;72.50;;;;;;927918;152;27429;-77
2022/09/23 00:08:54;;;;;;;3.50;2.70;;;9.60;72.70;;;;;;928269;152;27496;-77
2022/09/23 00:11:21;;;;;;;3.70;2.50;;;9.60;72.80;;;;;;928125;152;27384;-77
2022/09/23 00:13:47;;;;;;;4.73;3.67;;;9.60;72.80;;;;;;928624;151;27413;-77
2022/09/23 00:16:14;;;;;;;3.63;2.77;;;9.60;72.80;;;;;;927645;150;27745;-77
2022/09/23 00:18:40;;;;;;;3.13;2.80;;;9.60;72.70;;;;;;927596;151;27478;-77
2022/09/23 00:21:08;;;;;;;3.43;2.90;;;9.60;72.80;;;;;;927386;152;27970;-77
2022/09/23 00:23:33;;;;;;;3.07;2.77;;;9.60;73.10;;;;;;927777;152;27404;-78
2022/09/23 00:26:00;;;;;;;3.90;2.80;;;9.50;72.90;;;;;;928618;151;27445;-77
2022/09/23 00:28:27;;;;;;;5.23;3.20;;;9.50;73.00;;;;;;927746;151;27372;-77
2022/09/23 00:30:53;;;;;;;3.50;3.17;;;9.50;73.10;;;;;;928271;152;27422;-77
2022/09/23 00:33:20;;;;;;;2.93;2.73;;;9.50;73.30;;;;;;928713;151;27442;-78
2022/09/23 00:35:46;;;;;;;2.70;2.50;;;9.50;73.40;;;;;;927801;152;27388;-77
2022/09/23 00:38:13;;;;;;;5.20;2.70;;;9.50;73.50;;;;;;928229;152;27395;-77
2022/09/23 00:40:42;;;;;;;3.83;2.60;;;9.40;73.50;;;;;;927891;152;27436;-77
2022/09/23 00:43:09;;;;;;;2.77;2.57;;;9.40;73.50;;;;;;927190;152;27863;-78
2022/09/23 00:45:35;;;;;;;3.10;2.83;;;9.40;73.50;;;;;;926926;152;27349;-78
2022/09/23 00:48:02;;;;;;;3.00;2.70;;;9.40;73.70;;;;;;927859;152;27392;-78
2022/09/23 00:50:37;;;;;;;3.63;3.17;;;9.30;73.80;;;;;;927852;152;27401;-78
2022/09/23 00:53:04;;;;;;;2.83;2.63;;;9.30;74.00;;;;;;927755;152;27435;-78
2022/09/23 00:55:33;;;;;;;3.30;2.80;;;9.30;74.00;;;;;;927369;151;27337;-78
2022/09/23 00:57:59;;;;;;;4.57;2.80;;;9.30;74.00;;;;;;927774;151;27645;-78
2022/09/23 01:00:26;;;;;;;3.43;2.73;;;9.20;74.00;;;;;;927523;151;27330;-77
2022/09/23 01:02:53;;;;;;;2.83;2.50;;;9.20;74.20;;;;;;928266;152;27362;-78
2022/09/23 01:05:19;;;;;;;2.33;2.20;;;9.20;74.20;;;;;;928208;152;27317;-77
2022/09/23 01:07:46;;;;;;;2.70;2.50;;;9.10;74.30;;;;;;928396;152;27376;-77
2022/09/23 01:10:13;;;;;;;2.47;2.27;;;9.10;74.50;;;;;;928037;152;27532;-77
2022/09/23 01:12:44;;;;;;;3.23;2.90;;;9.10;74.80;;;;;;927174;152;27308;-77
2022/09/23 01:15:26;;;;;;;3.40;2.70;;;9.10;75.00;;;;;;927616;151;27308;-77
2022/09/23 01:18:05;;;;;;;2.77;2.50;;;9.10;75.00;;;;;;928017;152;27553;-78
2022/09/23 01:20:58;;;;;;;2.27;2.07;;;9.10;75.00;;;;;;927717;151;27470;-77
2022/09/23 01:23:50;;;;;;;3.13;2.47;;;9.10;74.90;;;;;;927903;151;27388;-78
2022/09/23 01:26:28;;;;;;;3.10;2.80;;;9.00;74.70;;;;;;927777;152;27465;-78
2022/09/23 01:29:10;;;;;;;2.43;2.30;;;9.00;74.70;;;;;;927708;152;27345;-78
2022/09/23 01:31:48;;;;;;;2.93;2.73;;;9.00;75.00;;;;;;927166;152;27372;-77
2022/09/23 01:34:35;;;;;;;3.07;2.63;;;8.90;75.10;;;;;;928065;151;27852;-77
2022/09/23 01:37:11;;;;;;;2.83;2.63;;;8.90;75.30;;;;;;927548;151;27369;-77
2022/09/23 01:39:43;;;;;;;2.90;2.70;;;8.90;75.30;;;;;;927394;152;27286;-78
2022/09/23 01:42:31;;;;;;;3.63;3.00;;;8.80;75.60;;;;;;928466;151;27431;-78
2022/09/23 01:44:57;;;;;;;5.50;2.60;;;8.80;75.80;;;;;;927667;152;27365;-78
2022/09/23 01:47:27;;;;;;;2.70;2.50;;;8.80;75.80;;;;;;927017;152;27987;-78
2022/09/23 01:52:56;;;;;;;2.87;2.67;;;8.80;76.20;;;;;;926987;152;27361;-79
2022/09/23 01:55:38;;;;;;;2.67;2.47;;;8.80;76.10;;;;;;927461;151;27324;-79
2022/09/23 01:58:08;;;;;;;3.20;2.90;;;8.80;76.30;;;;;;927642;152;27350;-79
2022/09/23 02:00:34;;;;;;;2.73;2.43;;;8.80;76.30;;;;;;928338;151;27357;-79
2022/09/23 02:03:03;;;;;;;2.90;2.70;;;8.70;76.40;;;;;;927152;152;27497;-78
2022/09/23 02:05:27;;;;;;;3.17;2.67;;;8.70;76.50;;;;;;927464;152;28355;-79
2022/09/23 02:07:58;;;;;;;2.70;2.50;;;8.70;76.50;;;;;;926662;152;27310;-78
2022/09/23 02:10:32;;;;;;;4.43;2.60;;;8.70;76.60;;;;;;927711;152;27353;-79
2022/09/23 02:12:59;;;;;;;3.60;2.53;;;8.70;76.70;;;;;;927799;151;27539;-78
2022/09/23 02:15:28;;;;;;;4.07;2.70;;;8.70;76.70;;;;;;928371;151;27400;-78
2022/09/23 02:17:57;;;;;;;2.33;2.23;;;8.60;76.90;;;;;;927056;152;27415;-78
2022/09/23 02:20:29;;;;;;;3.03;2.60;;;8.60;76.90;;;;;;926472;151;27317;-77
2022/09/23 02:23:11;;;;;;;2.80;2.53;;;8.60;76.90;;;;;;927258;151;27470;-77
2022/09/23 02:25:37;;;;;;;2.90;2.70;;;8.60;76.90;;;;;;927203;151;27364;-77
2022/09/23 02:28:04;;;;;;;2.40;2.20;;;8.50;76.80;;;;;;919021;151;27421;-77
2022/09/23 02:30:31;;;;;;;3.20;2.90;;;8.50;77.20;;;;;;927999;152;27401;-77
2022/09/23 02:33:03;;;;;;;3.37;2.70;;;8.50;77.20;;;;;;926723;151;27939;-77
2022/09/23 02:35:42;;;;;;;2.77;2.57;;;8.50;77.40;;;;;;927370;152;27485;-77
2022/09/23 02:38:20;;;;;;;3.23;3.00;;;8.50;77.50;;;;;;927534;151;27485;-77
2022/09/23 02:40:47;;;;;;;3.67;2.73;;;8.40;77.40;;;;;;927548;152;27469;-78
2022/09/23 02:43:31;;;;;;;3.13;2.70;;;8.40;77.40;;;;;;927997;152;27330;-76
2022/09/23 02:45:52;;;;;;;3.00;2.70;;;8.40;77.50;;;;;;926966;152;27441;-75
2022/09/23 02:48:21;;;;;;;4.10;3.13;;;8.40;77.50;;;;;;927419;151;27381;-74
2022/09/23 02:50:48;;;;;;;2.90;2.70;;;8.30;77.60;;;;;;927832;152;27450;-75
2022/09/23 02:53:17;;;;;;;3.63;3.03;;;8.30;77.60;;;;;;928626;151;27424;-76
2022/09/23 02:55:43;;;;;;;4.30;3.70;;;8.30;77.80;;;;;;927705;152;27490;-76
2022/09/23 02:58:10;;;;;;;4.17;3.33;;;8.30;78.00;;;;;;928094;152;27385;-75
2022/09/23 03:00:46;;;;;;;3.20;2.80;;;8.20;78.20;;;;;;927622;152;27402;-75
2022/09/23 03:03:24;;;;;;;3.93;3.40;;;8.20;78.30;;;;;;892265;156;27384;-75
2022/09/23 03:05:54;;;;;;;3.20;2.90;;;8.20;78.40;;;;;;927131;152;27442;-75
2022/09/23 03:08:24;;;;;;;3.47;2.80;;;8.20;78.40;;;;;;927020;151;27909;-76
2022/09/23 03:10:58;;;;;;;3.57;3.10;;;8.10;78.50;;;;;;927617;152;27473;-75
2022/09/23 03:13:31;;;;;;;3.67;3.00;;;8.10;78.70;;;;;;927740;151;27367;-76
2022/09/23 03:16:00;;;;;;;3.50;3.17;;;8.10;78.80;;;;;;927587;152;27325;-75
2022/09/23 03:18:33;;;;;;;2.93;2.73;;;8.10;78.90;;;;;;927199;152;27927;-76
2022/09/23 03:20:59;;;;;;;3.10;2.57;;;8.10;79.10;;;;;;928230;152;28425;-75
2022/09/23 03:23:37;;;;;;;2.80;2.60;;;8.00;79.10;;;;;;927367;151;27809;-75
2022/09/23 03:26:01;;;;;;;3.10;2.73;;;8.00;79.20;;;;;;927453;152;27475;-75
2022/09/23 03:28:27;;;;;;;3.90;3.30;;;8.00;79.20;;;;;;926951;152;27474;-74
2022/09/23 03:30:54;;;;;;;5.23;3.40;;;8.00;79.40;;;;;;928255;152;27478;-76
2022/09/23 03:33:20;;;;;;;3.40;3.10;;;8.00;79.70;;;;;;928396;150;27345;-76
2022/09/23 03:38:37;;;;;;;2.77;2.57;;;7.90;79.90;;;;;;926525;151;27438;-77
2022/09/23 03:41:04;;;;;;;4.47;2.80;;;7.90;79.90;;;;;;927612;151;27498;-76
2022/09/23 03:43:30;;;;;;;2.73;2.53;;;7.80;80.00;;;;;;927190;152;27742;-76
2022/09/23 03:45:58;;;;;;;4.97;3.17;;;7.90;80.30;;;;;;927746;152;27425;-76
2022/09/23 03:48:23;;;;;;;3.40;3.10;;;7.90;80.50;;;;;;927925;152;27322;-76
2022/09/23 03:50:50;;;;;;;3.83;3.10;;;7.80;80.70;;;;;;928701;151;27369;-77
2022/09/23 03:53:19;;;;;;;4.10;3.30;;;7.90;81.00;;;;;;928529;151;27448;-77
2022/09/23 03:55:45;;;;;;;3.83;3.50;;;7.90;81.00;;;;;;927978;152;27474;-75
2022/09/23 03:58:10;;;;;;;3.67;3.27;;;7.90;81.10;;;;;;927904;152;27361;-75
2022/09/23 04:00:36;;;;;;;3.30;3.00;;;7.80;81.10;;;;;;928311;152;27341;-77
2022/09/23 04:03:03;;;;;;;2.73;2.50;;;7.80;81.20;;;;;;928615;151;27336;-76
2022/09/23 04:05:30;;;;;;;3.43;3.13;;;7.80;81.30;;;;;;927741;152;27488;-76
2022/09/23 04:07:56;;;;;;;3.50;3.20;;;7.80;81.30;;;;;;927314;152;27954;-76
2022/09/23 04:10:23;;;;;;;3.97;3.23;;;7.80;81.40;;;;;;928640;152;27473;-76
2022/09/23 04:12:49;;;;;;;4.17;3.10;;;7.80;81.60;;;;;;928538;152;27297;-76
2022/09/23 04:15:16;;;;;;;3.77;2.93;;;7.80;81.70;;;;;;928451;152;27322;-76
2022/09/23 04:17:43;;;;;;;2.70;2.50;;;7.80;81.70;;;;;;928269;151;27357;-77
2022/09/23 04:20:09;;;;;;;3.60;3.30;;;7.80;81.90;;;;;;928182;152;27470;-76
2022/09/23 04:22:37;;;;;;;3.10;2.90;;;7.80;82.00;;;;;;928628;151;27294;-75
2022/09/23 04:25:03;;;;;;;3.60;3.30;;;7.80;82.10;;;;;;927857;151;27355;-75
2022/09/23 04:27:29;;;;;;;3.13;2.90;;;7.80;82.20;;;;;;928071;151;27482;-75
2022/09/23 04:29:56;;;;;;;3.37;3.07;;;7.80;82.30;;;;;;927954;152;27321;-77
2022/09/23 04:32:23;;;;;;;3.53;3.03;;;7.80;82.40;;;;;;927695;151;27418;-76
2022/09/23 04:34:49;;;;;;;5.20;3.03;;;7.70;82.40;;;;;;927372;152;27383;-76
2022/09/23 04:37:15;;;;;;;3.50;3.20;;;7.70;82.50;;;;;;928499;151;27828;-75
2022/09/23 04:39:42;;;;;;;3.47;3.17;;;7.70;82.50;;;;;;928475;152;27357;-76
2022/09/23 04:42:08;;;;;;;4.10;3.50;;;7.70;82.50;;;;;;928425;152;27345;-76
2022/09/23 04:44:35;;;;;;;3.20;2.90;;;7.70;82.70;;;;;;927822;152;27460;-76
2022/09/23 04:47:03;;;;;;;3.20;3.00;;;7.70;82.80;;;;;;928313;152;27470;-75
2022/09/23 04:49:32;;;;;;;4.17;3.37;;;7.70;82.80;;;;;;928093;150;28065;-76
2022/09/23 04:51:55;;;;;;;3.07;2.77;;;7.60;83.00;;;;;;928124;151;27380;-75
2022/09/23 04:54:21;;;;;;;3.10;2.80;;;7.70;83.20;;;;;;928279;151;27345;-75
2022/09/23 04:56:48;;;;;;;3.57;3.27;;;7.60;83.20;;;;;;928039;152;27333;-76
2022/09/23 04:59:15;;;;;;;3.57;3.23;;;7.60;83.50;;;;;;927349;152;27400;-77
2022/09/23 05:01:41;;;;;;;3.50;3.20;;;7.60;83.70;;;;;;927934;152;27389;-75
2022/09/23 05:04:09;;;;;;;3.33;3.03;;;7.60;84.00;;;;;;928071;151;27344;-75
2022/09/23 05:06:34;;;;;;;3.53;3.23;;;7.60;84.20;;;;;;927464;152;27448;-76
2022/09/23 05:09:01;;;;;;;5.10;3.20;;;7.60;84.30;;;;;;927746;151;27341;-76
2022/09/23 05:11:27;;;;;;;3.57;3.27;;;7.60;84.60;;;;;;928071;150;27462;-75
2022/09/23 05:13:54;;;;;;;3.97;3.60;;;7.70;85.10;;;;;;928060;152;27483;-76
2022/09/23 05:16:22;;;;;;;3.43;3.13;;;7.70;85.30;;;;;;927521;152;27356;-76
2022/09/23 05:18:47;;;;;;;4.00;3.30;;;7.80;85.50;;;;;;927165;152;27301;-75
2022/09/23 05:21:14;;;;;;;5.00;3.07;;;7.80;85.80;;;;;;927963;152;27420;-76
2022/09/23 05:23:40;;;;;;;2.97;2.77;;;7.80;86.30;;;;;;928123;149;27388;-77
2022/09/23 05:26:07;;;;;;;3.50;3.03;;;7.90;86.40;;;;;;928407;152;27470;-76
2022/09/23 05:28:34;;;;;;;3.43;3.23;;;8.00;86.70;;;;;;927930;152;27298;-76
2022/09/23 05:31:06;;;;;;;3.67;3.37;;;8.10;86.90;;;;;;927940;152;27365;-77
2022/09/23 05:33:33;;;;;;;6.47;3.40;;;8.10;87.20;;;;;;926937;152;27349;-77
2022/09/23 05:35:59;;;;;;;4.00;3.63;;;8.20;87.20;;;;;;928606;152;27882;-75
2022/09/23 05:38:25;;;;;;;3.67;3.37;;;8.30;87.40;;;;;;928065;152;27392;-75
2022/09/23 05:40:58;;;;;;;3.57;3.27;;;8.40;87.90;;;;;;927912;152;27352;-75
2022/09/23 05:43:24;;;;;;;3.90;3.60;;;8.50;88.90;;;;;;928931;151;27446;-75
2022/09/23 05:45:51;;;;;;;5.00;3.30;;;8.70;90.00;;;;;;928120;152;27496;-76
2022/09/23 05:48:17;;;;;;;5.13;4.00;;;9.00;90.60;;;;;;928210;152;27373;-75
2022/09/23 05:50:50;;;;;;;4.10;3.70;;;9.20;91.40;;;;;;927891;152;28328;-75
2022/09/23 05:53:17;;;;;;;4.23;3.57;;;9.60;92.50;;;;;;927996;151;27448;-76
2022/09/23 05:55:44;;;;;;;4.03;3.73;;;10.10;93.30;;;;;;927263;150;27752;-76
2022/09/23 05:58:10;;;;;;;7.80;4.50;;;10.60;93.60;;;;;;927871;152;27888;-76
2022/09/23 06:00:36;;;;;;;4.30;3.90;;;11.20;93.50;;;;;;927861;152;27847;-76
2022/09/23 06:03:03;;;;;;;3.80;3.50;;;11.70;93.10;;;;;;927502;152;27352;-75
2022/09/23 06:05:29;;;;;;;4.80;3.30;;;12.30;92.40;;;;;;928100;151;27324;-75
2022/09/23 06:07:57;;;;;;;3.37;3.13;;;12.80;91.60;;;;;;927739;152;27357;-75
2022/09/23 06:10:23;;;;;;;3.17;2.87;;;13.30;91.10;;;;;;928064;151;27415;-75
2022/09/23 06:12:49;;;;;;;3.33;3.00;;;13.80;91.00;;;;;;928105;152;27407;-77
2022/09/23 06:15:16;;;;;;;3.58;3.27;;;14.40;90.40;;;;;;927983;151;27377;-75
2022/09/23 06:17:43;;;;;;;3.27;2.72;;;14.90;89.00;;;;;;927663;152;27478;-75
2022/09/23 06:20:09;;;;;;;3.40;3.10;;;15.40;87.00;;;;;;928088;151;27365;-76
2022/09/23 06:22:36;;;;;;;2.62;2.42;;;16.00;84.40;;;;;;927581;151;27334;-76
2022/09/23 06:25:02;;;;;;;3.58;2.80;;;16.50;82.80;;;;;;928189;152;27436;-77
2022/09/23 06:27:29;;;;;;;2.70;2.50;;;17.10;82.20;;;;;;928791;152;27396;-75
2022/09/23 06:29:56;;;;;;;5.37;2.70;;;17.60;80.80;;;;;;927112;151;27380;-76
2022/09/23 06:32:22;;;;;;;4.40;2.60;;;18.20;78.90;;;;;;926964;152;27349;-76
2022/09/23 06:34:48;;;;;;;2.52;2.27;;;18.80;76.70;;;;;;926509;151;27412;-75
2022/09/23 06:37:15;;;;;;;2.67;2.30;;;19.40;74.40;;;;;;927643;152;27418;-77
2022/09/23 06:39:42;;;;;;;2.47;1.90;;;19.90;72.30;;;;;;927416;147;27393;-75
2022/09/23 06:42:08;;;;;;;2.37;1.95;;;20.30;70.70;;;;;;928443;152;27509;-76
2022/09/23 06:44:35;;;;;;;3.02;2.77;;;20.70;68.80;;;;;;928498;151;27487;-76
2022/09/23 06:47:01;;;;;;;2.40;2.20;;;21.00;66.80;;;;;;928186;151;27329;-76
2022/09/23 06:49:28;;;;;;;2.42;2.22;;;21.20;64.90;;;;;;928014;151;27349;-76
2022/09/23 06:51:55;;;;;;;2.85;2.58;;;21.20;63.20;;;;;;928118;152;27420;-77
2022/09/23 06:54:21;;;;;;;2.20;2.00;;;21.20;61.90;;;;;;930210;151;27423;-75
2022/09/23 06:56:48;;;;;;;4.03;2.20;;;21.10;61.00;;;;;;932434;151;27325;-75
2022/09/23 06:59:15;;;;;;;2.17;2.00;;;20.80;60.40;;;;;;931760;151;27360;-76
2022/09/23 07:01:41;;;;;;;1.95;1.85;;;20.60;60.20;;;;;;932349;151;27434;-76
2022/09/23 07:04:08;;;;;;;2.20;2.00;;;20.40;60.00;;;;;;933526;151;27367;-78
2022/09/23 07:06:34;;;;;;;2.45;2.08;;;20.20;60.10;;;;;;932659;151;27465;-76
2022/09/23 07:09:02;;;;;;;3.42;2.40;;;20.00;60.00;;;;;;932078;151;28451;-77
2022/09/23 07:11:27;;;;;;;1.90;1.80;;;19.80;60.10;;;;;;932114;151;27357;-75
2022/09/23 07:13:54;;;;;;;5.15;2.55;;;19.60;60.20;;;;;;932011;151;27438;-76
2022/09/23 07:16:20;;;;;;;2.80;2.25;;;19.50;60.50;;;;;;932456;151;28144;-76
2022/09/23 07:18:47;;;;;;;2.40;2.20;;;19.40;60.70;;;;;;932573;151;27587;-77
2022/09/23 07:21:14;;;;;;;3.02;2.30;;;19.40;61.00;;;;;;932195;151;27468;-76
2022/09/23 07:23:44;;;;;;;2.33;2.12;;;19.30;60.70;;;;;;931970;151;27333;-76
2022/09/23 07:26:10;;;;;;;2.35;1.80;;;19.30;60.80;;;;;;932629;151;27364;-76
2022/09/23 07:28:37;;;;;;;3.87;2.27;;;19.20;60.70;;;;;;932490;151;27429;-75
2022/09/23 07:31:06;;;;;;;3.05;2.62;;;19.30;60.90;;;;;;932291;151;27493;-76
2022/09/23 07:33:33;;;;;;;4.05;2.35;;;19.30;60.80;;;;;;931391;151;27668;-75
2022/09/23 07:35:59;;;;;;;6.58;2.30;;;19.30;60.90;;;;;;931971;151;27335;-78
2022/09/23 07:38:28;;;;;;;1.98;1.87;;;19.40;61.10;;;;;;931512;151;27453;-78
2022/09/23 07:40:52;;;;;;;2.08;1.87;;;19.60;61.20;;;;;;932374;151;27469;-77
2022/09/23 07:43:19;;;;;;;2.12;1.98;;;19.80;61.20;;;;;;932407;151;27388;-76
2022/09/23 07:45:45;;;;;;;2.42;2.10;;;20.00;61.10;;;;;;932586;151;27433;-76
2022/09/23 07:48:12;;;;;;;3.35;2.50;;;20.30;60.80;;;;;;931803;151;27714;-76
2022/09/23 07:50:38;;;;;;;3.83;2.45;;;20.60;60.70;;;;;;932450;151;27469;-76
2022/09/23 07:53:06;;;;;;;2.27;1.82;;;20.90;60.80;;;;;;931787;151;27343;-78
2022/09/23 07:55:32;;;;;;;1.92;1.82;;;21.30;60.90;;;;;;932396;151;27497;-77
2022/09/23 07:57:58;;;;;;;2.17;1.70;;;21.70;60.90;;;;;;932147;151;27340;-76
2022/09/23 08:00:25;;;;;;;1.90;1.77;;;22.20;60.50;;;;;;931972;151;27353;-76
2022/09/23 08:02:51;;;;;;;2.77;2.12;;;22.80;59.90;;;;;;932575;151;27368;-76
2022/09/23 08:05:18;;;;;;;1.70;1.60;;;23.30;59.10;;;;;;932684;151;27376;-78
2022/09/23 08:07:45;;;;;;;1.75;1.47;;;23.90;58.50;;;;;;932648;151;27381;-76
2022/09/23 08:10:11;;;;;;;1.77;1.67;;;24.40;57.70;;;;;;930215;151;27317;-77
2022/09/23 08:12:38;;;;;;;2.12;1.92;;;24.80;56.60;;;;;;931020;151;27342;-77
2022/09/23 08:15:05;;;;;;;2.55;1.70;;;25.20;55.60;;;;;;932041;151;27359;-78
2022/09/23 08:17:31;;;;;;;1.95;1.67;;;25.50;55.00;;;;;;932282;151;27373;-77
2022/09/23 08:19:58;;;;;;;1.90;1.80;;;25.70;54.10;;;;;;931787;151;27389;-77
2022/09/23 08:22:24;;;;;;;1.70;1.60;;;26.00;53.60;;;;;;932700;151;27437;-77
2022/09/23 08:24:51;;;;;;;1.60;1.50;;;26.10;53.00;;;;;;932136;151;27350;-79
2022/09/23 08:27:17;;;;;;;1.40;1.30;;;26.20;52.50;;;;;;932051;151;27349;-77
2022/09/23 08:29:44;;;;;;;1.55;1.45;;;26.30;52.00;;;;;;932125;151;27326;-79
2022/09/23 08:32:11;;;;;;;2.20;1.67;;;26.40;51.80;;;;;;932202;151;27458;-77
2022/09/23 08:34:37;;;;;;;1.90;1.50;;;26.50;51.50;;;;;;932195;151;28063;-76
2022/09/23 08:37:04;;;;;;;1.72;1.62;;;26.50;51.30;;;;;;932179;151;27458;-77
2022/09/23 08:39:30;;;;;;;1.60;1.50;;;26.70;51.30;;;;;;931315;151;27382;-77
2022/09/23 08:42:00;;;;;;;1.62;1.52;;;26.90;51.20;;;;;;932555;151;27353;-77
2022/09/23 08:44:27;;;;;;;1.55;1.45;;;27.20;51.10;;;;;;931784;151;27423;-78
2022/09/23 08:46:53;;;;;;;4.15;1.85;;;27.40;50.60;;;;;;931522;151;27446;-77
2022/09/23 08:49:23;;;;;;;1.70;1.60;;;27.70;50.20;;;;;;930215;151;27356;-77
2022/09/23 08:51:50;;;;;;;1.60;1.50;;;27.90;49.40;;;;;;930815;151;27389;-78
2022/09/23 08:54:16;;;;;;;2.47;1.82;;;28.10;49.00;;;;;;932418;151;27416;-76
2022/09/23 08:56:42;;;;;;;1.70;1.60;;;28.30;48.60;;;;;;933240;151;27437;-77
2022/09/23 08:59:09;;;;;;;1.60;1.50;;;28.40;48.30;;;;;;932869;151;27618;-77
2022/09/23 09:01:47;;;;;;;1.82;1.72;;;28.40;47.80;;;;;;931965;151;27293;-77
2022/09/23 09:04:17;;;;;;;1.80;1.70;;;28.50;47.50;;;;;;932997;151;27449;-78
2022/09/23 09:07:02;;;;;;;1.72;1.60;;;28.50;46.70;;;;;;933267;151;27380;-76
2022/09/23 09:09:34;;;;;;;2.70;1.70;;;28.50;47.00;;;;;;933099;151;27418;-75
2022/09/23 09:12:02;;;;;;;3.42;1.50;;;28.60;47.00;;;;;;932399;151;27394;-76
2022/09/23 09:14:51;;;;;;;2.50;1.60;;;28.60;46.80;;;;;;931818;151;27305;-76
2022/09/23 09:17:20;;;;;;;1.80;1.70;;;28.70;46.60;;;;;;933405;151;27768;-77
2022/09/23 09:19:48;;;;;;;1.70;1.60;;;28.80;46.40;;;;;;929601;151;27391;-76
2022/09/23 09:22:14;;;;;;;4.72;1.98;;;28.80;46.10;;;;;;930174;151;27430;-77
2022/09/23 09:24:42;;;;;;;1.95;1.60;;;28.90;46.10;;;;;;932011;151;27365;-76
2022/09/23 09:27:10;;;;;;;1.80;1.70;;;28.90;46.10;;;;;;932392;151;27305;-76
2022/09/23 09:29:37;;;;;;;4.12;1.40;;;29.10;46.30;;;;;;932218;151;27294;-77
2022/09/23 09:32:27;;;;;;;1.60;1.50;;;29.20;46.00;;;;;;932812;151;27433;-78
2022/09/23 09:34:54;;;;;;;1.60;1.50;;;29.40;45.60;;;;;;908194;155;27538;-76
2022/09/23 09:37:32;;;;;;;1.60;1.50;;;29.50;45.50;;;;;;925434;151;27455;-76
2022/09/23 09:39:59;;;;;;;1.72;1.62;;;29.60;45.20;;;;;;932705;151;27336;-77
2022/09/23 09:42:40;;;;;;;2.80;1.75;;;29.60;44.60;;;;;;933348;151;27456;-76
2022/09/23 09:45:07;;;;;;;2.22;1.72;;;29.50;43.90;;;;;;932772;151;27400;-76
2022/09/23 09:47:45;;;;;;;1.52;1.42;;;29.30;43.60;;;;;;929408;150;27398;-76
2022/09/23 09:50:09;;;;;;;1.82;1.72;;;29.00;43.40;;;;;;931084;151;27249;-78
2022/09/23 09:52:35;;;;;;;1.67;1.57;;;28.70;43.30;;;;;;932835;150;27290;-76
2022/09/23 09:55:14;;;;;;;1.50;1.40;;;28.30;43.30;;;;;;933665;150;27378;-76
2022/09/23 09:57:51;;;;;;;1.32;1.32;;;28.00;43.30;;;;;;943863;149;27387;-77
2022/09/23 10:00:23;;;;;;;2.02;1.47;;;27.70;43.70;;;;;;944693;149;27363;-76
2022/09/23 10:02:53;;;;;;;1.90;1.77;;;27.40;43.80;;;;;;942154;149;27297;-78
2022/09/23 10:05:26;;;;;;;3.02;1.55;;;27.10;44.10;;;;;;936947;149;27378;-78
2022/09/23 10:07:53;;;;;;;1.57;1.47;;;26.90;44.20;;;;;;944996;149;27363;-76
2022/09/23 10:10:20;;;;;;;1.62;1.52;;;26.70;44.50;;;;;;945411;149;28660;-76
2022/09/23 10:12:46;;;;;;;1.50;1.40;;;26.50;44.50;;;;;;943610;149;27331;-76
2022/09/23 10:15:27;;;;;;;1.42;1.32;;;26.40;44.40;;;;;;945276;149;27429;-76
2022/09/23 10:17:54;;;;;;;1.80;1.70;;;26.20;44.50;;;;;;943234;149;27457;-78
2022/09/23 10:20:21;;;;;;;1.60;1.50;;;26.10;44.40;;;;;;944548;149;27437;-76
2022/09/23 10:22:47;;;;;;;3.83;1.60;;;25.80;44.40;;;;;;944693;149;27352;-76
2022/09/23 10:25:16;;;;;;;1.95;1.80;;;25.70;44.70;;;;;;945175;149;27320;-77
2022/09/23 10:27:44;;;;;;;1.60;1.50;;;25.50;44.90;;;;;;944836;149;27357;-76
2022/09/23 10:30:21;;;;;;;3.12;1.47;;;25.40;45.10;;;;;;944844;149;27953;-78
2022/09/23 10:32:48;;;;;;;1.37;1.27;;;25.30;45.30;;;;;;949760;148;27368;-76
2022/09/23 10:35:14;;;;;;;1.32;1.22;;;25.20;45.20;;;;;;951920;147;28048;-76
2022/09/23 10:37:49;;;;;;;1.60;1.50;;;25.10;45.20;;;;;;934448;151;27408;-76
2022/09/23 10:49:08;;;;;;;1.62;1.52;;;24.60;45.80;;;;;;952926;147;27469;-76
2022/09/23 10:51:42;;;;;;;1.47;1.37;;;24.50;46.00;;;;;;951612;147;27431;-76
2022/09/23 10:54:26;;;;;;;1.35;1.22;;;24.30;46.00;;;;;;952278;147;27365;-77
2022/09/23 10:56:53;;;;;;;1.60;1.50;;;24.30;46.30;;;;;;944557;147;27424;-76
2022/09/23 10:59:26;;;;;;;1.70;1.60;;;24.20;46.60;;;;;;890598;150;28639;-76
2022/09/23 11:01:58;;;;;;;1.40;1.30;;;24.20;46.60;;;;;;934817;149;27325;-75
2022/09/23 11:04:23;;;;;;;1.30;1.20;;;24.10;46.60;;;;;;934822;149;27462;-76
2022/09/23 11:07:06;;;;;;;1.27;1.17;;;24.10;46.70;;;;;;934753;150;27377;-76
2022/09/23 11:09:43;;;;;;;1.80;1.40;;;24.10;46.80;;;;;;933866;150;27281;-76
2022/09/23 11:12:16;;;;;;;1.15;1.15;;;24.10;46.80;;;;;;934817;149;27421;-78
2022/09/23 11:14:51;;;;;;;1.45;1.35;;;24.10;46.80;;;;;;933804;149;27325;-76
2022/09/23 11:17:26;;;;;;;1.62;1.45;;;24.10;46.70;;;;;;934161;150;27462;-77
2022/09/23 11:20:05;;;;;;;1.22;1.15;;;24.10;46.60;;;;;;933710;150;27341;-78
2022/09/23 11:23:04;;;;;;;1.50;1.35;;;24.00;46.60;;;;;;934338;149;27337;-77
2022/09/23 11:25:29;;;;;;;1.40;1.30;;;23.90;46.60;;;;;;933932;150;27351;-76
2022/09/23 11:28:28;;;;;;;1.67;1.30;;;23.90;46.90;;;;;;932622;149;27466;-76
2022/09/23 11:31:26;;;;;;;1.27;1.17;;;23.80;46.90;;;;;;935358;149;27377;-76
2022/09/23 11:34:10;;;;;;;1.85;0.98;;;23.70;47.00;;;;;;934934;150;27391;-76
2022/09/23 11:36:42;;;;;;;1.40;1.30;;;23.70;47.10;;;;;;935624;149;27446;-76
2022/09/23 11:39:27;;;;;;;1.50;1.40;;;23.60;47.10;;;;;;933760;150;27351;-76
2022/09/23 11:41:54;;;;;;;1.35;1.17;;;23.60;47.20;;;;;;926180;152;27344;-77
2022/09/23 11:44:23;;;;;;;1.52;1.42;;;23.50;47.10;;;;;;927131;152;27347;-77
2022/09/23 11:46:50;;;;;;;1.37;1.20;;;23.50;47.20;;;;;;927350;152;27368;-76
2022/09/23 11:49:16;;;;;;;1.32;1.32;;;23.40;47.00;;;;;;926242;152;27344;-76
2022/09/23 11:51:52;;;;;;;1.92;1.20;;;23.40;47.10;;;;;;927589;152;27338;-75
2022/09/23 11:54:25;;;;;;;1.22;1.22;;;23.30;47.20;;;;;;926883;152;27438;-77
2022/09/23 11:56:53;;;;;;;1.50;1.40;;;23.30;47.40;;;;;;927617;152;27435;-76
2022/09/23 11:59:29;;;;;;;1.27;1.20;;;23.20;47.70;;;;;;927331;152;27308;-76
2022/09/23 12:01:55;;;;;;;1.57;1.47;;;23.20;47.90;;;;;;927025;152;27410;-76
2022/09/23 12:04:25;;;;;;;1.42;1.07;;;23.20;47.80;;;;;;927069;152;27288;-76
2022/09/23 12:06:54;;;;;;;1.40;1.30;;;23.30;47.90;;;;;;926421;152;27828;-78
2022/09/23 12:09:59;;;;;;;1.32;1.22;;;23.30;47.70;;;;;;927070;152;27396;-76
2022/09/23 12:12:37;;;;;;;1.27;1.27;;;23.30;47.60;;;;;;926635;152;27876;-75
2022/09/23 12:15:09;;;;;;;1.45;1.32;;;23.30;47.50;;;;;;927009;152;28418;-76
2022/09/23 12:17:41;;;;;;;1.40;1.30;;;23.30;47.50;;;;;;927352;152;27464;-75
2022/09/23 12:20:17;;;;;;;1.52;1.42;;;23.30;47.50;;;;;;927191;151;27309;-77
2022/09/23 12:22:58;;;;;;;1.77;1.05;;;23.30;47.50;;;;;;927787;152;27380;-75
2022/09/23 12:25:37;;;;;;;1.20;1.12;;;23.30;47.60;;;;;;927346;152;27376;-76
2022/09/23 12:28:03;;;;;;;1.42;1.40;;;23.30;47.70;;;;;;926487;152;27418;-76
2022/09/23 12:30:30;;;;;;;1.40;1.30;;;23.30;47.80;;;;;;927028;152;27306;-76
2022/09/23 12:32:59;;;;;;;1.52;1.20;;;23.40;47.80;;;;;;926224;152;27464;-77
2022/09/23 12:35:26;;;;;;;3.25;1.32;;;23.40;47.80;;;;;;925281;152;27407;-76
2022/09/23 12:37:52;;;;;;;2.08;1.35;;;23.50;47.70;;;;;;926418;152;27364;-76
2022/09/23 12:40:22;;;;;;;1.30;1.20;;;23.60;48.30;;;;;;927055;152;27335;-78
2022/09/23 12:42:48;;;;;;;1.55;1.15;;;23.60;47.70;;;;;;926669;152;27360;-76
2022/09/23 12:45:30;;;;;;;1.30;1.05;;;23.60;47.70;;;;;;928020;152;27376;-77
2022/09/23 12:47:54;;;;;;;1.35;1.25;;;23.70;47.80;;;;;;926866;152;27402;-76
2022/09/23 12:50:39;;;;;;;1.32;1.22;;;23.70;47.60;;;;;;927163;152;27539;-76
2022/09/23 12:53:33;;;;;;;1.32;1.30;;;23.80;47.40;;;;;;927171;152;27929;-76
2022/09/23 12:55:59;;;;;;;1.20;1.10;;;23.90;47.30;;;;;;927525;152;27290;-76
2022/09/23 12:58:38;;;;;;;1.90;1.10;;;24.00;47.40;;;;;;923482;151;27491;-76
2022/09/23 13:01:07;;;;;;;1.00;1.00;;;24.00;47.40;;;;;;928091;151;27305;-75
2022/09/23 13:09:03;;;;;;;1.00;1.00;;;24.20;47.20;;;;;;947750;148;27669;-76
2022/09/23 13:11:30;;;;;;;1.87;1.12;;;24.20;47.10;;;;;;917653;153;27864;-77
2022/09/23 13:13:56;;;;;;;1.57;1.47;;;24.30;47.10;;;;;;948327;148;27735;-76
2022/09/23 13:16:38;;;;;;;1.42;1.32;;;24.30;46.90;;;;;;930480;151;27351;-78
2022/09/23 13:19:04;;;;;;;1.07;0.98;;;24.40;46.90;;;;;;930913;151;27458;-75
2022/09/23 13:21:45;;;;;;;2.22;1.25;;;24.50;46.70;;;;;;950969;148;27431;-76
2022/09/23 13:24:12;;;;;;;1.20;1.10;;;24.50;46.70;;;;;;930330;151;27446;-75